Time;durP1;ratioP1;P1;durP2;ratioP2;P2;SDS_P1;SDS_P2;PMS_P1;PMS_P2;Temp;Humidity;BMP_temperature;BMP_pressure;BME280_temperature;BME280_humidity;BME280_pressure;Samples;Min_cycle;Max_cycle;Signal;HPM_P1;HPM_P2
2023/05/21 00:04:28;;;;;;;2.20;1.10;;;18.20;64.70;;;;;;10253706;28;20086;-53
2023/05/21 00:09:29;;;;;;;1.42;1.08;;;18.20;64.70;;;;;;10284661;28;20026;-54
2023/05/21 00:14:30;;;;;;;1.90;1.40;;;18.20;64.70;;;;;;10290582;28;20652;-54
2023/05/21 00:19:32;;;;;;;2.53;1.70;;;18.20;64.70;;;;;;10305047;28;20681;-55
2023/05/21 00:24:33;;;;;;;2.10;1.40;;;18.20;64.70;;;;;;10305166;28;20035;-54
2023/05/21 00:29:33;;;;;;;2.55;1.42;;;18.10;64.70;;;;;;10272684;28;20062;-54
2023/05/21 00:34:35;;;;;;;2.55;1.45;;;18.10;64.70;;;;;;10272571;28;20113;-54
2023/05/21 00:39:35;;;;;;;2.50;1.20;;;18.20;64.70;;;;;;10265396;28;20012;-54
2023/05/21 00:44:37;;;;;;;1.92;1.33;;;18.20;64.70;;;;;;10232327;28;20050;-54
2023/05/21 00:49:38;;;;;;;3.58;1.70;;;18.20;64.80;;;;;;10249852;28;20526;-55
2023/05/21 00:54:39;;;;;;;3.78;1.48;;;18.10;64.70;;;;;;10304177;28;20069;-54
2023/05/21 00:59:40;;;;;;;1.83;1.30;;;18.10;64.70;;;;;;10286946;28;20485;-53
2023/05/21 01:04:41;;;;;;;2.17;1.50;;;18.10;64.80;;;;;;10248831;28;20041;-52
2023/05/21 01:09:42;;;;;;;2.17;1.60;;;18.10;64.70;;;;;;10231443;28;20429;-52
2023/05/21 01:14:43;;;;;;;2.40;1.63;;;18.10;64.80;;;;;;10231175;28;20051;-53
2023/05/21 01:19:44;;;;;;;2.13;1.52;;;18.10;64.80;;;;;;10255008;28;20518;-54
2023/05/21 01:24:46;;;;;;;1.92;1.30;;;18.10;64.90;;;;;;10302881;28;20041;-53
2023/05/21 01:29:47;;;;;;;2.47;1.30;;;18.10;64.80;;;;;;10302680;28;20586;-54
2023/05/21 01:35:19;;;;;;;1.92;1.30;;;18.10;64.90;;;;;;10302535;28;20023;-54
2023/05/21 01:40:51;;;;;;;1.60;1.15;;;18.10;64.90;;;;;;10219870;28;20023;-54
2023/05/21 01:45:55;;;;;;;2.13;1.40;;;18.10;64.90;;;;;;10229886;28;20042;-52
2023/05/21 01:51:00;;;;;;;3.10;2.00;;;18.10;64.90;;;;;;10240727;28;20365;-54
2023/05/21 01:56:01;;;;;;;4.00;1.73;;;18.10;64.90;;;;;;10286778;28;20027;-54
2023/05/21 02:01:03;;;;;;;1.95;1.38;;;18.10;64.90;;;;;;10274784;28;20497;-54
2023/05/21 02:06:04;;;;;;;2.17;1.38;;;18.10;64.90;;;;;;10301371;28;20034;-53
2023/05/21 02:11:05;;;;;;;1.80;1.30;;;18.10;64.90;;;;;;10286122;28;20035;-52
2023/05/21 02:16:08;;;;;;;2.17;1.40;;;18.10;64.90;;;;;;10281486;28;20126;-55
2023/05/21 02:21:12;;;;;;;4.13;1.45;;;18.10;64.90;;;;;;10256273;28;20051;-55
2023/05/21 02:26:13;;;;;;;5.97;2.97;;;18.00;64.90;;;;;;10285763;28;20047;-53
2023/05/21 02:31:14;;;;;;;12.70;2.03;;;18.00;64.90;;;;;;10264696;28;20159;-52
2023/05/21 02:36:17;;;;;;;4.57;1.77;;;18.10;65.00;;;;;;10252499;28;20038;-54
2023/05/21 02:41:18;;;;;;;1.83;1.30;;;18.10;65.00;;;;;;10245354;28;20686;-54
2023/05/21 02:46:19;;;;;;;3.10;1.48;;;18.10;65.00;;;;;;10245425;29;20297;-54
2023/05/21 02:51:20;;;;;;;2.30;1.70;;;18.00;64.90;;;;;;10241553;28;20039;-54
2023/05/21 02:56:20;;;;;;;2.22;1.73;;;18.10;65.10;;;;;;10284616;28;20101;-53
2023/05/21 03:01:21;;;;;;;2.10;1.20;;;18.10;65.10;;;;;;10251337;28;20066;-54
2023/05/21 03:06:22;;;;;;;2.03;1.52;;;18.00;65.00;;;;;;10227694;28;20439;-53
2023/05/21 03:11:22;;;;;;;2.75;1.80;;;18.00;65.00;;;;;;10270103;28;20128;-53
2023/05/21 03:16:23;;;;;;;2.33;1.55;;;18.00;65.00;;;;;;10242279;28;20082;-53
2023/05/21 03:21:23;;;;;;;1.73;1.33;;;18.00;65.10;;;;;;10224480;28;20220;-52
2023/05/21 03:26:28;;;;;;;1.80;1.20;;;18.00;65.00;;;;;;10224998;29;20102;-54
2023/05/21 03:31:29;;;;;;;2.53;1.55;;;18.00;65.00;;;;;;10224316;29;20122;-54
2023/05/21 03:36:30;;;;;;;2.45;1.67;;;18.00;65.10;;;;;;10241841;28;20339;-54
2023/05/21 03:41:31;;;;;;;2.03;1.52;;;18.00;65.10;;;;;;10266987;28;20019;-53
2023/05/21 03:46:32;;;;;;;3.17;1.52;;;18.00;65.10;;;;;;10283636;28;20106;-54
2023/05/21 03:51:32;;;;;;;2.17;1.67;;;18.00;65.10;;;;;;10258543;28;20378;-53
2023/05/21 03:56:33;;;;;;;2.88;1.83;;;18.00;65.10;;;;;;10282786;28;20023;-54
2023/05/21 04:01:35;;;;;;;2.20;1.70;;;18.00;65.70;;;;;;10265635;28;20070;-53
2023/05/21 04:06:35;;;;;;;2.15;1.67;;;18.00;65.10;;;;;;10242909;29;20027;-54
2023/05/21 04:11:36;;;;;;;2.03;1.50;;;18.00;65.10;;;;;;10252822;28;20093;-53
2023/05/21 04:16:37;;;;;;;2.13;1.50;;;18.00;65.20;;;;;;10228591;28;20045;-53
2023/05/21 04:21:38;;;;;;;2.38;1.40;;;18.00;65.20;;;;;;10260910;28;20019;-53
2023/05/21 04:26:40;;;;;;;2.47;1.67;;;18.00;65.20;;;;;;10251834;28;20478;-53
2023/05/21 04:31:41;;;;;;;2.45;1.75;;;18.00;65.20;;;;;;10224038;28;20497;-54
2023/05/21 04:36:44;;;;;;;2.50;1.65;;;18.00;65.20;;;;;;10229001;28;20083;-52
2023/05/21 04:41:44;;;;;;;3.25;1.75;;;18.00;65.90;;;;;;10224984;29;20059;-53
2023/05/21 04:46:45;;;;;;;1.85;1.58;;;18.00;65.30;;;;;;10242556;29;20637;-52
2023/05/21 04:51:46;;;;;;;3.15;1.75;;;18.00;65.30;;;;;;10245631;28;20165;-54
2023/05/21 04:56:47;;;;;;;3.15;1.83;;;18.00;66.70;;;;;;10252525;28;20724;-54
2023/05/21 05:01:47;;;;;;;2.33;1.55;;;18.10;66.60;;;;;;10291912;28;20041;-54
2023/05/21 05:06:48;;;;;;;2.78;1.73;;;18.20;67.10;;;;;;10279723;28;20023;-54
2023/05/21 05:11:50;;;;;;;6.25;1.75;;;18.20;67.40;;;;;;10231231;28;20577;-53
2023/05/21 05:16:50;;;;;;;6.38;2.03;;;18.20;67.40;;;;;;10231205;28;20507;-53
2023/05/21 05:21:51;;;;;;;3.17;1.90;;;18.40;67.10;;;;;;10241618;29;20070;-52
2023/05/21 05:26:52;;;;;;;5.25;1.92;;;18.40;67.30;;;;;;10269544;28;20023;-53
2023/05/21 05:31:52;;;;;;;6.75;2.53;;;18.50;67.60;;;;;;10275040;28;20195;-54
2023/05/21 05:36:53;;;;;;;5.45;2.45;;;18.50;67.50;;;;;;10267697;28;20111;-52
2023/05/21 05:41:54;;;;;;;7.18;3.35;;;18.50;67.30;;;;;;10266206;28;21279;-52
2023/05/21 05:46:54;;;;;;;9.18;2.55;;;18.40;67.50;;;;;;10266357;28;20022;-50
2023/05/21 05:51:55;;;;;;;6.65;2.15;;;18.40;67.20;;;;;;10266286;28;20063;-51
2023/05/21 05:56:56;;;;;;;6.47;2.20;;;18.30;67.40;;;;;;10252228;28;20019;-54
2023/05/21 06:01:56;;;;;;;4.95;1.85;;;18.30;67.50;;;;;;10262509;28;20668;-53
2023/05/21 06:06:58;;;;;;;6.43;2.47;;;18.30;67.60;;;;;;10227557;28;20532;-51
2023/05/21 06:11:59;;;;;;;17.98;3.38;;;18.30;67.70;;;;;;10255817;28;20080;-50
2023/05/21 06:17:00;;;;;;;7.57;3.72;;;18.30;67.80;;;;;;10300940;28;20046;-53
2023/05/21 06:22:01;;;;;;;9.77;2.40;;;18.30;67.90;;;;;;10287147;28;20031;-53
2023/05/21 06:27:02;;;;;;;13.30;2.38;;;18.30;68.00;;;;;;10262175;28;20031;-53
2023/05/21 06:32:03;;;;;;;21.77;3.72;;;18.30;68.10;;;;;;10257538;28;20035;-53
2023/05/21 06:37:04;;;;;;;9.38;2.65;;;18.30;67.70;;;;;;10236217;28;20122;-52
2023/05/21 06:42:05;;;;;;;13.25;3.15;;;18.30;67.80;;;;;;10264939;28;20050;-51
2023/05/21 06:47:06;;;;;;;7.97;2.65;;;18.30;67.80;;;;;;10276531;28;20101;-53
2023/05/21 06:52:06;;;;;;;5.65;2.70;;;18.30;67.80;;;;;;10284342;28;20521;-52
2023/05/21 06:57:07;;;;;;;5.00;2.58;;;18.30;67.80;;;;;;10259680;28;20027;-49
2023/05/21 07:02:08;;;;;;;4.55;2.40;;;18.20;67.70;;;;;;10231557;28;20031;-50
2023/05/21 07:07:08;;;;;;;9.63;3.13;;;18.20;67.50;;;;;;10226636;28;20023;-54
2023/05/21 07:12:09;;;;;;;14.05;3.28;;;18.20;67.50;;;;;;10243634;29;20490;-49
2023/05/21 07:17:10;;;;;;;8.20;3.30;;;18.30;67.50;;;;;;10262813;28;20046;-52
2023/05/21 07:22:11;;;;;;;9.23;3.15;;;18.30;67.20;;;;;;10251746;28;20392;-51
2023/05/21 07:27:12;;;;;;;9.65;3.03;;;18.30;67.20;;;;;;10283772;28;20027;-52
2023/05/21 07:32:12;;;;;;;8.27;3.03;;;18.30;67.10;;;;;;10283384;28;20474;-51
2023/05/21 07:37:13;;;;;;;7.20;3.38;;;18.30;67.20;;;;;;10282154;28;20154;-52
2023/05/21 07:42:14;;;;;;;5.90;3.10;;;18.30;67.10;;;;;;10223949;28;20023;-53
2023/05/21 07:47:15;;;;;;;7.45;2.90;;;18.30;67.10;;;;;;10241259;28;20046;-53
2023/05/21 07:52:15;;;;;;;8.40;3.53;;;18.40;67.10;;;;;;10223507;29;20515;-53
2023/05/21 07:57:16;;;;;;;7.28;3.50;;;18.40;67.00;;;;;;10241827;28;20027;-53
2023/05/21 08:02:17;;;;;;;6.28;3.30;;;18.40;67.00;;;;;;10240432;28;20098;-53
2023/05/21 08:07:19;;;;;;;7.20;3.30;;;18.40;67.00;;;;;;10240915;28;20026;-53
2023/05/21 08:12:19;;;;;;;6.30;3.50;;;18.40;66.90;;;;;;10224894;28;20031;-55
2023/05/21 08:17:20;;;;;;;4.93;2.75;;;18.40;67.00;;;;;;10240564;28;20055;-49
2023/05/21 08:22:21;;;;;;;12.98;3.42;;;18.40;67.00;;;;;;10223644;28;20023;-51
2023/05/21 08:27:21;;;;;;;11.85;3.10;;;18.50;67.00;;;;;;10233724;28;20049;-50
2023/05/21 08:32:22;;;;;;;4.45;2.70;;;18.50;66.90;;;;;;10246055;28;20067;-50
2023/05/21 08:37:23;;;;;;;7.07;3.60;;;18.50;66.80;;;;;;10267568;28;20093;-52
2023/05/21 08:42:42;;;;;;;5.45;3.53;;;18.50;66.90;;;;;;10251190;28;20030;-53
2023/05/21 08:47:43;;;;;;;6.25;3.33;;;18.50;66.80;;;;;;10267135;28;20035;-53
2023/05/21 08:52:44;;;;;;;9.45;3.40;;;18.60;67.40;;;;;;10237579;28;20414;-54
2023/05/21 08:57:45;;;;;;;10.75;4.22;;;18.60;66.90;;;;;;10255597;28;20019;-53
2023/05/21 09:02:45;;;;;;;7.32;3.03;;;18.60;68.20;;;;;;10263461;28;20093;-53
2023/05/21 09:08:02;;;;;;;8.27;3.22;;;18.70;66.90;;;;;;10262001;28;20030;-54
2023/05/21 09:13:03;;;;;;;6.05;2.70;;;18.60;67.00;;;;;;10231477;28;20058;-53
2023/05/21 09:18:04;;;;;;;8.55;4.68;;;18.60;67.20;;;;;;10236259;28;20086;-54
2023/05/21 09:23:11;;;;;;;9.52;3.90;;;18.60;67.30;;;;;;10286172;28;20161;-54
2023/05/21 09:28:14;;;;;;;12.88;3.58;;;18.60;67.40;;;;;;10286035;28;20034;-54
2023/05/21 09:33:28;;;;;;;6.43;3.47;;;18.60;67.30;;;;;;10283583;28;20407;-53
2023/05/21 09:38:29;;;;;;;7.40;4.63;;;18.60;67.30;;;;;;10255159;28;20301;-54
2023/05/21 09:43:30;;;;;;;5.47;3.13;;;18.60;67.20;;;;;;10226735;28;20020;-53
2023/05/21 09:48:42;;;;;;;5.80;3.70;;;18.60;67.30;;;;;;10243200;28;20085;-51
2023/05/21 09:53:56;;;;;;;8.68;4.07;;;18.60;67.10;;;;;;10250285;28;20036;-52
2023/05/21 09:59:05;;;;;;;5.70;3.70;;;18.70;67.10;;;;;;10245507;29;20031;-52
2023/05/21 10:04:07;;;;;;;7.72;4.22;;;18.70;67.10;;;;;;10271717;28;20097;-53
2023/05/21 10:09:17;;;;;;;7.32;3.28;;;18.70;67.10;;;;;;10299492;28;20517;-55
2023/05/21 10:14:24;;;;;;;4.57;3.17;;;18.80;67.00;;;;;;10285675;28;20045;-53
2023/05/21 10:19:25;;;;;;;4.90;3.35;;;18.70;66.90;;;;;;10300277;28;20126;-52
2023/05/21 10:24:27;;;;;;;5.78;3.65;;;18.80;67.00;;;;;;10291841;28;20122;-53
2023/05/21 10:29:30;;;;;;;6.63;3.50;;;18.80;67.80;;;;;;10246387;28;20023;-53
2023/05/21 10:34:31;;;;;;;5.38;3.88;;;18.90;67.50;;;;;;10227873;28;20030;-52
2023/05/21 10:39:33;;;;;;;6.70;4.13;;;18.90;67.60;;;;;;10245562;28;20020;-52
2023/05/21 10:45:02;;;;;;;6.68;4.25;;;18.90;67.50;;;;;;10225814;29;20554;-52
2023/05/21 10:50:21;;;;;;;5.53;3.30;;;18.90;67.50;;;;;;10246465;28;20077;-52
2023/05/21 10:56:08;;;;;;;5.88;4.30;;;18.90;67.40;;;;;;10275086;28;20294;-51
2023/05/21 11:01:10;;;;;;;5.57;3.78;;;18.90;67.30;;;;;;10213382;28;20446;-53
2023/05/21 11:06:21;;;;;;;5.45;3.78;;;18.90;67.30;;;;;;10294941;28;20486;-53
2023/05/21 11:11:47;;;;;;;5.43;3.88;;;19.00;67.30;;;;;;10224618;29;20767;-52
2023/05/21 11:16:47;;;;;;;10.73;4.13;;;19.00;67.20;;;;;;10225618;29;20055;-53
2023/05/21 11:21:53;;;;;;;7.25;4.32;;;19.00;67.20;;;;;;10225895;29;20118;-48
2023/05/21 11:26:57;;;;;;;9.18;3.80;;;19.00;67.10;;;;;;10216252;28;20043;-48
2023/05/21 11:32:01;;;;;;;5.63;4.40;;;19.10;67.30;;;;;;10246982;28;20033;-46
2023/05/21 11:37:23;;;;;;;7.72;5.15;;;19.20;67.00;;;;;;10252804;28;20098;-47
2023/05/21 11:42:38;;;;;;;7.63;4.47;;;19.20;67.10;;;;;;10262853;28;20125;-46
2023/05/21 11:47:40;;;;;;;6.65;4.93;;;19.20;67.10;;;;;;10246147;28;20030;-46
2023/05/21 11:52:41;;;;;;;8.32;5.05;;;19.30;67.10;;;;;;10257815;28;20062;-44
2023/05/21 11:57:46;;;;;;;8.65;5.72;;;19.30;67.30;;;;;;10263594;28;20019;-47
2023/05/21 12:02:50;;;;;;;9.38;5.43;;;19.30;67.40;;;;;;10258017;28;20027;-47
2023/05/21 12:07:51;;;;;;;6.30;4.97;;;19.40;67.40;;;;;;10254918;28;20471;-44
2023/05/21 12:12:52;;;;;;;11.10;5.10;;;19.40;67.50;;;;;;10250208;28;20118;-43
2023/05/21 12:17:53;;;;;;;14.82;6.15;;;19.40;67.70;;;;;;10277093;28;20066;-45
2023/05/21 12:22:56;;;;;;;8.43;5.63;;;19.40;67.30;;;;;;10264108;28;20038;-43
2023/05/21 12:28:00;;;;;;;12.05;5.25;;;19.40;67.40;;;;;;10249985;28;20661;-44
2023/05/21 12:33:00;;;;;;;10.73;5.45;;;19.50;67.60;;;;;;10232631;28;20031;-48
2023/05/21 12:38:02;;;;;;;8.35;5.63;;;19.50;67.50;;;;;;10259754;28;20102;-47
2023/05/21 12:43:04;;;;;;;10.90;6.18;;;19.60;67.60;;;;;;10278914;28;20500;-46
2023/05/21 12:48:04;;;;;;;8.65;5.28;;;19.60;67.60;;;;;;10275541;28;20019;-47
2023/05/21 12:53:09;;;;;;;10.05;5.95;;;19.60;67.50;;;;;;10277356;28;20030;-44
2023/05/21 12:58:12;;;;;;;9.32;6.25;;;19.60;67.80;;;;;;10272576;28;20028;-44
2023/05/21 13:03:13;;;;;;;7.43;5.55;;;19.70;67.90;;;;;;10258724;28;20752;-45
2023/05/21 13:08:15;;;;;;;9.50;6.15;;;19.60;67.60;;;;;;10255166;28;20091;-46
2023/05/21 13:13:16;;;;;;;8.65;5.90;;;19.60;67.90;;;;;;10247978;29;20057;-46
2023/05/21 13:18:17;;;;;;;9.32;5.45;;;19.60;67.50;;;;;;10256501;28;20039;-49
2023/05/21 13:23:17;;;;;;;11.45;7.03;;;19.60;67.70;;;;;;10248149;28;20016;-45
2023/05/21 13:28:18;;;;;;;7.82;6.45;;;19.50;68.10;;;;;;10248227;28;20118;-43
2023/05/21 13:33:19;;;;;;;9.90;5.80;;;19.60;68.20;;;;;;10247997;29;20059;-44
2023/05/21 13:38:19;;;;;;;8.95;6.25;;;19.60;68.10;;;;;;10255157;28;20035;-44
2023/05/21 13:43:20;;;;;;;12.68;6.70;;;19.60;68.30;;;;;;10254468;28;20170;-45
2023/05/21 13:48:21;;;;;;;7.57;6.38;;;19.60;68.20;;;;;;10247144;28;20020;-45
2023/05/21 13:53:21;;;;;;;11.63;6.75;;;19.60;68.10;;;;;;10247275;29;20035;-45
2023/05/21 13:58:22;;;;;;;8.27;5.80;;;19.60;68.10;;;;;;10261015;28;20023;-45
2023/05/21 14:03:23;;;;;;;9.27;6.38;;;19.50;67.90;;;;;;10257805;28;20553;-43
2023/05/21 14:08:26;;;;;;;10.70;6.68;;;19.50;68.00;;;;;;10260028;28;20029;-44
2023/05/21 14:13:26;;;;;;;8.50;6.30;;;19.50;68.10;;;;;;10246972;28;20043;-43
2023/05/21 14:18:27;;;;;;;9.52;6.93;;;19.50;68.10;;;;;;10246478;28;20031;-47
2023/05/21 14:23:28;;;;;;;8.48;6.57;;;19.50;68.10;;;;;;10244537;28;20374;-43
2023/05/21 14:28:29;;;;;;;9.85;6.60;;;19.50;68.10;;;;;;10243777;28;20316;-45
2023/05/21 14:33:31;;;;;;;11.30;7.85;;;19.50;68.10;;;;;;10245590;28;20130;-45
2023/05/21 14:38:32;;;;;;;15.02;9.38;;;19.50;68.30;;;;;;10239038;29;20059;-46
2023/05/21 14:43:33;;;;;;;14.15;8.35;;;19.50;68.50;;;;;;10244837;28;20221;-45
2023/05/21 14:48:33;;;;;;;10.77;7.03;;;19.50;68.30;;;;;;10228100;28;20105;-49
2023/05/21 14:53:34;;;;;;;12.05;7.00;;;19.50;68.90;;;;;;10227829;29;20118;-46
2023/05/21 14:58:35;;;;;;;8.43;7.53;;;19.50;68.60;;;;;;10242683;28;20118;-46
2023/05/21 15:03:35;;;;;;;9.38;7.43;;;19.60;68.60;;;;;;10245142;28;20015;-45
2023/05/21 15:08:36;;;;;;;10.48;7.22;;;19.60;68.30;;;;;;10244515;28;20104;-50
2023/05/21 15:13:37;;;;;;;14.20;8.57;;;19.60;68.40;;;;;;10244140;28;20127;-44
2023/05/21 15:18:38;;;;;;;8.98;6.70;;;19.60;68.30;;;;;;10243045;28;20016;-45
2023/05/21 15:23:39;;;;;;;9.75;7.47;;;19.60;68.50;;;;;;10243090;29;20077;-43
2023/05/21 15:28:39;;;;;;;12.27;7.80;;;19.60;68.40;;;;;;10270366;28;20153;-43
2023/05/21 15:33:40;;;;;;;13.52;8.13;;;19.60;68.20;;;;;;10283616;28;20034;-43
2023/05/21 15:38:41;;;;;;;10.45;8.13;;;19.80;68.50;;;;;;10265363;28;20030;-54
2023/05/21 15:43:41;;;;;;;15.10;9.35;;;20.00;68.00;;;;;;10225925;28;20117;-52
2023/05/21 15:48:42;;;;;;;15.77;10.43;;;20.20;68.20;;;;;;10248864;28;20110;-56
2023/05/21 15:53:42;;;;;;;21.25;9.77;;;20.40;69.20;;;;;;10275994;28;20113;-53
2023/05/21 15:58:43;;;;;;;19.17;10.18;;;20.60;70.10;;;;;;10268239;28;20026;-55
2023/05/21 16:03:44;;;;;;;17.20;9.75;;;20.90;70.10;;;;;;10264715;28;20062;-54
2023/05/21 16:08:45;;;;;;;12.77;10.02;;;21.00;69.30;;;;;;10241117;29;20109;-53
2023/05/21 16:13:46;;;;;;;16.73;9.63;;;20.70;69.80;;;;;;10240554;29;20170;-54
2023/05/21 16:18:47;;;;;;;14.50;9.25;;;20.70;70.50;;;;;;10240769;29;20035;-54
2023/05/21 16:23:47;;;;;;;17.77;10.82;;;20.60;70.20;;;;;;10240238;29;20023;-54
2023/05/21 16:28:48;;;;;;;14.88;8.27;;;20.60;70.20;;;;;;10230002;28;20019;-52
2023/05/21 16:33:49;;;;;;;13.45;9.82;;;20.50;69.90;;;;;;10239251;28;20028;-53
2023/05/21 16:38:50;;;;;;;13.15;9.18;;;20.40;70.20;;;;;;10249726;28;20767;-54
2023/05/21 16:43:53;;;;;;;13.68;9.68;;;20.20;70.10;;;;;;10233757;28;20050;-51
2023/05/21 16:48:53;;;;;;;17.75;8.77;;;20.20;70.10;;;;;;10242076;28;20022;-54
2023/05/21 16:53:54;;;;;;;16.05;8.27;;;20.10;70.30;;;;;;10297330;28;20467;-53
2023/05/21 16:58:55;;;;;;;14.60;9.20;;;20.00;70.80;;;;;;10303734;28;20107;-54
2023/05/21 17:03:55;;;;;;;12.50;8.57;;;20.00;71.10;;;;;;10275574;28;20058;-52
2023/05/21 17:08:56;;;;;;;12.70;7.97;;;20.10;71.10;;;;;;10244374;28;20544;-54
2023/05/21 17:13:56;;;;;;;13.48;9.05;;;20.10;71.10;;;;;;10239350;28;20154;-54
2023/05/21 17:18:58;;;;;;;15.88;9.50;;;20.00;71.10;;;;;;10250335;28;20023;-54
2023/05/21 17:23:59;;;;;;;15.40;9.57;;;20.00;71.10;;;;;;10286134;28;20066;-54
2023/05/21 17:29:00;;;;;;;17.83;9.48;;;20.10;71.10;;;;;;10301167;28;20089;-56
2023/05/21 17:34:00;;;;;;;13.32;9.68;;;20.10;70.80;;;;;;10283204;28;20166;-55
2023/05/21 17:39:01;;;;;;;13.77;9.25;;;20.10;70.90;;;;;;10220676;28;20658;-53
2023/05/21 17:44:02;;;;;;;15.73;9.73;;;20.10;70.70;;;;;;10222855;29;20451;-54
2023/05/21 17:49:04;;;;;;;15.85;9.23;;;20.10;70.60;;;;;;10252220;28;20098;-56
2023/05/21 17:54:06;;;;;;;12.63;9.15;;;20.20;70.40;;;;;;10255156;28;20023;-55
2023/05/21 17:59:08;;;;;;;12.07;9.70;;;20.20;70.30;;;;;;10234829;28;20027;-59
2023/05/21 18:04:10;;;;;;;12.68;9.07;;;20.10;70.50;;;;;;10226962;28;20037;-56
2023/05/21 18:09:13;;;;;;;15.15;8.82;;;20.10;70.40;;;;;;10240463;28;20113;-56
2023/05/21 18:14:14;;;;;;;18.17;10.00;;;20.10;70.50;;;;;;10252320;28;20039;-54
2023/05/21 18:19:15;;;;;;;10.75;9.48;;;20.20;70.30;;;;;;10257039;28;20478;-55
2023/05/21 18:24:15;;;;;;;12.05;8.88;;;20.10;70.50;;;;;;10226607;28;20170;-55
2023/05/21 18:29:16;;;;;;;11.70;8.18;;;20.00;70.50;;;;;;10226137;29;20027;-56
2023/05/21 18:34:18;;;;;;;9.82;8.68;;;20.10;70.40;;;;;;10226387;28;20039;-57
2023/05/21 18:39:23;;;;;;;14.10;8.75;;;20.10;70.50;;;;;;10226453;28;20129;-54
2023/05/21 18:44:23;;;;;;;12.52;8.38;;;20.10;70.30;;;;;;10242934;28;20019;-55
2023/05/21 18:49:25;;;;;;;22.52;9.38;;;20.10;70.60;;;;;;10241573;28;20054;-54
2023/05/21 18:54:25;;;;;;;10.98;8.07;;;20.00;70.70;;;;;;10240056;28;20035;-57
2023/05/21 18:59:27;;;;;;;18.85;8.50;;;19.90;70.70;;;;;;10241421;28;20474;-56
2023/05/21 19:04:28;;;;;;;15.23;8.88;;;19.90;70.90;;;;;;10224811;29;20466;-55
2023/05/21 19:09:29;;;;;;;31.92;9.70;;;19.80;70.80;;;;;;10241016;29;20034;-55
2023/05/21 19:14:29;;;;;;;12.25;8.48;;;19.80;70.70;;;;;;10229771;28;20477;-55
2023/05/21 19:19:30;;;;;;;19.27;9.70;;;19.80;70.70;;;;;;10240545;29;20478;-56
2023/05/21 19:24:31;;;;;;;11.35;8.77;;;19.80;70.70;;;;;;10218826;29;20501;-56
2023/05/21 19:29:31;;;;;;;12.18;8.75;;;19.80;70.50;;;;;;10224447;29;20031;-56
2023/05/21 19:34:32;;;;;;;11.38;8.90;;;19.80;70.50;;;;;;10241284;28;20049;-57
2023/05/21 19:39:38;;;;;;;19.42;8.68;;;19.80;70.80;;;;;;10242142;28;20033;-54
2023/05/21 19:44:39;;;;;;;11.27;9.05;;;19.80;70.90;;;;;;10243653;28;20134;-55
2023/05/21 19:49:40;;;;;;;11.80;9.00;;;19.70;70.80;;;;;;10242066;28;20597;-55
2023/05/21 19:54:41;;;;;;;11.30;8.65;;;19.70;70.50;;;;;;10241895;28;20034;-55
2023/05/21 19:59:41;;;;;;;11.05;8.35;;;19.70;70.50;;;;;;10240748;29;20019;-55
2023/05/21 20:04:42;;;;;;;8.98;8.00;;;19.70;70.50;;;;;;10240796;28;20158;-55
2023/05/21 20:09:43;;;;;;;11.82;8.18;;;19.70;70.40;;;;;;10239099;28;20037;-55
2023/05/21 20:14:45;;;;;;;9.23;7.85;;;19.70;70.40;;;;;;10229794;28;20075;-56
2023/05/21 20:19:46;;;;;;;16.77;9.43;;;19.60;70.30;;;;;;10239375;28;20106;-55
2023/05/21 20:24:47;;;;;;;8.82;7.80;;;19.70;70.40;;;;;;10224695;28;20015;-57
2023/05/21 20:29:48;;;;;;;12.32;8.88;;;19.60;70.30;;;;;;10240602;28;20098;-56
2023/05/21 20:34:49;;;;;;;10.40;9.18;;;19.70;70.50;;;;;;10254679;28;20027;-57
2023/05/21 20:39:52;;;;;;;9.02;8.13;;;19.60;70.40;;;;;;10233465;29;20047;-54
2023/05/21 20:44:54;;;;;;;10.27;8.43;;;19.60;70.40;;;;;;10250140;29;20024;-55
2023/05/21 20:49:58;;;;;;;11.18;8.57;;;19.60;70.50;;;;;;10232460;28;20493;-55
2023/05/21 20:55:03;;;;;;;11.38;8.18;;;19.60;70.40;;;;;;10249064;29;20023;-55
2023/05/21 21:00:04;;;;;;;11.68;8.48;;;19.60;70.40;;;;;;10248850;29;20667;-55
2023/05/21 21:05:08;;;;;;;12.60;9.80;;;19.60;70.40;;;;;;10232596;29;20098;-55
2023/05/21 21:10:09;;;;;;;11.13;8.45;;;19.60;70.40;;;;;;10248108;28;20019;-55
2023/05/21 21:15:10;;;;;;;9.57;8.18;;;19.60;70.40;;;;;;10249328;29;20050;-55
2023/05/21 21:20:12;;;;;;;10.93;9.07;;;19.60;70.50;;;;;;10247980;28;20529;-53
2023/05/21 21:25:13;;;;;;;12.07;8.63;;;19.60;70.50;;;;;;10231442;29;20027;-54
2023/05/21 21:30:13;;;;;;;11.73;9.18;;;19.60;70.50;;;;;;10247535;29;20091;-55
2023/05/21 21:35:14;;;;;;;11.77;9.73;;;19.60;70.50;;;;;;10270329;28;20039;-55
2023/05/21 21:40:15;;;;;;;10.57;8.85;;;19.60;70.50;;;;;;10248002;28;20031;-56
2023/05/21 21:45:16;;;;;;;10.88;8.85;;;19.60;70.50;;;;;;10248346;29;20134;-54
2023/05/21 21:50:16;;;;;;;11.57;9.05;;;19.50;70.50;;;;;;10247673;28;20111;-56
2023/05/21 21:55:17;;;;;;;9.88;8.85;;;19.60;70.50;;;;;;10230568;29;20039;-55
2023/05/21 22:00:19;;;;;;;11.57;9.10;;;19.60;71.00;;;;;;10230704;29;20098;-56
2023/05/21 22:05:20;;;;;;;11.32;9.05;;;19.60;70.50;;;;;;10234751;28;20034;-58
2023/05/21 22:10:21;;;;;;;11.45;8.38;;;19.60;70.40;;;;;;10229489;29;20019;-55
2023/05/21 22:15:27;;;;;;;10.23;9.05;;;19.60;70.30;;;;;;10229124;29;20047;-54
2023/05/21 22:20:28;;;;;;;11.48;9.82;;;19.60;70.30;;;;;;10230258;29;20023;-55
2023/05/21 22:25:29;;;;;;;11.98;8.77;;;19.60;70.30;;;;;;10246201;28;20023;-55
2023/05/21 22:30:30;;;;;;;11.43;8.75;;;19.50;70.20;;;;;;10229271;28;20034;-55
2023/05/21 22:35:30;;;;;;;9.90;8.45;;;19.50;70.20;;;;;;10252983;28;20069;-55
2023/05/21 22:40:31;;;;;;;9.63;8.20;;;19.50;70.20;;;;;;10244807;29;20023;-55
2023/05/21 22:45:32;;;;;;;9.18;8.23;;;19.50;70.20;;;;;;10245935;28;20099;-56
2023/05/21 22:50:33;;;;;;;10.10;9.10;;;19.50;70.20;;;;;;10244934;28;20122;-55
2023/05/21 22:55:33;;;;;;;11.63;9.10;;;19.50;70.20;;;;;;10245270;28;20041;-55
2023/05/21 23:00:34;;;;;;;10.98;9.85;;;19.50;70.20;;;;;;10245528;28;20030;-55
2023/05/21 23:05:35;;;;;;;10.48;9.18;;;19.50;70.20;;;;;;10228208;29;20340;-56
2023/05/21 23:10:36;;;;;;;9.23;8.30;;;19.50;70.30;;;;;;10244760;28;20023;-57
2023/05/21 23:15:37;;;;;;;9.45;8.45;;;19.50;70.30;;;;;;10243117;28;20202;-53
2023/05/21 23:20:39;;;;;;;10.13;8.75;;;19.50;70.40;;;;;;10244694;28;20027;-54
2023/05/21 23:25:40;;;;;;;10.35;9.30;;;19.50;70.30;;;;;;10244467;29;20038;-56
2023/05/21 23:30:40;;;;;;;10.15;8.48;;;19.50;70.30;;;;;;10220796;29;20118;-55
2023/05/21 23:35:41;;;;;;;10.73;9.45;;;19.50;70.40;;;;;;10249919;28;20118;-55
2023/05/21 23:40:42;;;;;;;10.35;9.35;;;19.50;70.40;;;;;;10258767;28;20560;-56
2023/05/21 23:45:43;;;;;;;10.35;8.60;;;19.50;70.50;;;;;;10242862;28;20086;-54
2023/05/21 23:50:43;;;;;;;10.40;9.30;;;19.50;70.50;;;;;;10242332;28;20027;-55
2023/05/21 23:55:44;;;;;;;9.50;8.45;;;19.50;70.60;;;;;;10243682;28;20027;-55
